sensor_id;sensor_type;location;lat;lon;timestamp;P1;durP1;ratioP1;P2;durP2;ratioP2
72559;SDS011;62987;52.382;9.752;2022-12-07T00:01:20;26.30;;;10.73;;
72559;SDS011;62987;52.382;9.752;2022-12-07T00:03:50;28.95;;;10.35;;
72559;SDS011;62987;52.382;9.752;2022-12-07T00:06:19;25.75;;;11.48;;
72559;SDS011;62987;52.382;9.752;2022-12-07T00:08:48;27.17;;;10.65;;
72559;SDS011;62987;52.382;9.752;2022-12-07T00:11:17;28.92;;;11.50;;
72559;SDS011;62987;52.382;9.752;2022-12-07T00:13:47;28.75;;;10.05;;
72559;SDS011;62987;52.382;9.752;2022-12-07T00:16:19;29.67;;;9.88;;
72559;SDS011;62987;52.382;9.752;2022-12-07T00:18:48;24.02;;;10.52;;
72559;SDS011;62987;52.382;9.752;2022-12-07T00:21:17;22.40;;;9.25;;
72559;SDS011;62987;52.382;9.752;2022-12-07T00:23:48;25.67;;;10.98;;
72559;SDS011;62987;52.382;9.752;2022-12-07T00:26:20;28.02;;;10.75;;
72559;SDS011;62987;52.382;9.752;2022-12-07T00:28:49;30.20;;;10.57;;
72559;SDS011;62987;52.382;9.752;2022-12-07T00:31:20;25.88;;;10.40;;
72559;SDS011;62987;52.382;9.752;2022-12-07T00:33:49;26.00;;;10.02;;
72559;SDS011;62987;52.382;9.752;2022-12-07T00:36:18;26.52;;;10.30;;
72559;SDS011;62987;52.382;9.752;2022-12-07T00:38:52;28.85;;;11.52;;
72559;SDS011;62987;52.382;9.752;2022-12-07T00:41:23;25.90;;;10.65;;
72559;SDS011;62987;52.382;9.752;2022-12-07T00:43:52;28.50;;;10.90;;
72559;SDS011;62987;52.382;9.752;2022-12-07T00:46:21;27.58;;;10.27;;
72559;SDS011;62987;52.382;9.752;2022-12-07T00:48:50;28.00;;;10.60;;
72559;SDS011;62987;52.382;9.752;2022-12-07T00:51:20;22.27;;;9.45;;
72559;SDS011;62987;52.382;9.752;2022-12-07T00:53:50;23.60;;;9.63;;
72559;SDS011;62987;52.382;9.752;2022-12-07T00:56:19;21.25;;;9.95;;
72559;SDS011;62987;52.382;9.752;2022-12-07T00:58:53;22.50;;;10.48;;
72559;SDS011;62987;52.382;9.752;2022-12-07T01:01:23;21.17;;;9.98;;
72559;SDS011;62987;52.382;9.752;2022-12-07T01:03:52;23.35;;;9.60;;
72559;SDS011;62987;52.382;9.752;2022-12-07T01:06:21;23.33;;;10.52;;
72559;SDS011;62987;52.382;9.752;2022-12-07T01:08:50;26.67;;;11.00;;
72559;SDS011;62987;52.382;9.752;2022-12-07T01:11:19;23.50;;;10.18;;
72559;SDS011;62987;52.382;9.752;2022-12-07T01:13:49;22.20;;;9.98;;
72559;SDS011;62987;52.382;9.752;2022-12-07T01:16:21;27.75;;;11.20;;
72559;SDS011;62987;52.382;9.752;2022-12-07T01:18:51;25.33;;;10.50;;
72559;SDS011;62987;52.382;9.752;2022-12-07T01:21:22;27.13;;;11.07;;
72559;SDS011;62987;52.382;9.752;2022-12-07T01:23:51;26.30;;;11.57;;
72559;SDS011;62987;52.382;9.752;2022-12-07T01:26:20;23.88;;;10.70;;
72559;SDS011;62987;52.382;9.752;2022-12-07T01:28:49;28.38;;;11.27;;
72559;SDS011;62987;52.382;9.752;2022-12-07T01:31:18;24.10;;;10.30;;
72559;SDS011;62987;52.382;9.752;2022-12-07T01:33:51;23.55;;;11.00;;
72559;SDS011;62987;52.382;9.752;2022-12-07T01:36:21;29.52;;;13.18;;
72559;SDS011;62987;52.382;9.752;2022-12-07T01:38:50;29.38;;;12.38;;
72559;SDS011;62987;52.382;9.752;2022-12-07T01:41:20;28.95;;;12.45;;
72559;SDS011;62987;52.382;9.752;2022-12-07T01:44:08;27.15;;;11.27;;
72559;SDS011;62987;52.382;9.752;2022-12-07T01:46:39;28.95;;;12.45;;
72559;SDS011;62987;52.382;9.752;2022-12-07T01:49:10;30.75;;;12.45;;
72559;SDS011;62987;52.382;9.752;2022-12-07T01:51:41;25.50;;;11.32;;
72559;SDS011;62987;52.382;9.752;2022-12-07T01:54:11;27.88;;;12.10;;
72559;SDS011;62987;52.382;9.752;2022-12-07T01:56:42;28.30;;;11.30;;
72559;SDS011;62987;52.382;9.752;2022-12-07T01:59:16;26.25;;;12.13;;
72559;SDS011;62987;52.382;9.752;2022-12-07T02:01:45;28.80;;;13.13;;
72559;SDS011;62987;52.382;9.752;2022-12-07T02:04:15;30.48;;;12.65;;
72559;SDS011;62987;52.382;9.752;2022-12-07T02:06:44;23.15;;;10.50;;
72559;SDS011;62987;52.382;9.752;2022-12-07T02:09:13;27.25;;;12.02;;
72559;SDS011;62987;52.382;9.752;2022-12-07T02:11:41;29.35;;;11.95;;
72559;SDS011;62987;52.382;9.752;2022-12-07T02:14:09;25.20;;;11.57;;
72559;SDS011;62987;52.382;9.752;2022-12-07T02:16:39;22.83;;;10.40;;
72559;SDS011;62987;52.382;9.752;2022-12-07T02:22:28;25.45;;;10.35;;
72559;SDS011;62987;52.382;9.752;2022-12-07T02:25:21;24.65;;;10.98;;
72559;SDS011;62987;52.382;9.752;2022-12-07T02:27:59;26.02;;;11.07;;
72559;SDS011;62987;52.382;9.752;2022-12-07T02:30:34;24.85;;;10.35;;
72559;SDS011;62987;52.382;9.752;2022-12-07T02:33:09;29.58;;;12.07;;
72559;SDS011;62987;52.382;9.752;2022-12-07T02:35:43;26.67;;;11.38;;
72559;SDS011;62987;52.382;9.752;2022-12-07T02:38:14;25.02;;;11.23;;
72559;SDS011;62987;52.382;9.752;2022-12-07T02:40:47;23.45;;;10.55;;
72559;SDS011;62987;52.382;9.752;2022-12-07T02:43:19;27.15;;;10.38;;
72559;SDS011;62987;52.382;9.752;2022-12-07T02:45:53;28.58;;;11.35;;
72559;SDS011;62987;52.382;9.752;2022-12-07T02:48:26;26.52;;;11.00;;
72559;SDS011;62987;52.382;9.752;2022-12-07T02:50:55;25.27;;;11.02;;
72559;SDS011;62987;52.382;9.752;2022-12-07T02:53:30;23.45;;;10.88;;
72559;SDS011;62987;52.382;9.752;2022-12-07T02:55:59;23.08;;;10.10;;
72559;SDS011;62987;52.382;9.752;2022-12-07T02:58:35;27.25;;;10.07;;
72559;SDS011;62987;52.382;9.752;2022-12-07T03:01:16;28.15;;;10.50;;
72559;SDS011;62987;52.382;9.752;2022-12-07T03:03:55;25.80;;;10.23;;
72559;SDS011;62987;52.382;9.752;2022-12-07T03:06:31;24.42;;;9.52;;
72559;SDS011;62987;52.382;9.752;2022-12-07T03:09:06;21.23;;;9.20;;
72559;SDS011;62987;52.382;9.752;2022-12-07T03:11:42;29.35;;;11.18;;
72559;SDS011;62987;52.382;9.752;2022-12-07T03:14:17;22.60;;;9.85;;
72559;SDS011;62987;52.382;9.752;2022-12-07T03:16:53;23.70;;;9.00;;
72559;SDS011;62987;52.382;9.752;2022-12-07T03:19:26;32.88;;;9.30;;
72559;SDS011;62987;52.382;9.752;2022-12-07T03:21:55;23.13;;;9.93;;
72559;SDS011;62987;52.382;9.752;2022-12-07T03:24:28;18.95;;;8.88;;
72559;SDS011;62987;52.382;9.752;2022-12-07T03:26:59;22.08;;;9.48;;
72559;SDS011;62987;52.382;9.752;2022-12-07T03:29:34;21.75;;;8.95;;
72559;SDS011;62987;52.382;9.752;2022-12-07T03:32:06;19.75;;;8.90;;
72559;SDS011;62987;52.382;9.752;2022-12-07T03:34:40;15.80;;;6.15;;
72559;SDS011;62987;52.382;9.752;2022-12-07T03:37:12;15.98;;;6.75;;
72559;SDS011;62987;52.382;9.752;2022-12-07T03:39:46;21.83;;;7.95;;
72559;SDS011;62987;52.382;9.752;2022-12-07T03:42:22;15.02;;;7.25;;
72559;SDS011;62987;52.382;9.752;2022-12-07T03:44:50;16.23;;;6.60;;
72559;SDS011;62987;52.382;9.752;2022-12-07T03:47:20;15.88;;;5.97;;
72559;SDS011;62987;52.382;9.752;2022-12-07T03:49:55;15.50;;;6.78;;
72559;SDS011;62987;52.382;9.752;2022-12-07T03:52:30;15.15;;;6.07;;
72559;SDS011;62987;52.382;9.752;2022-12-07T03:55:05;14.70;;;5.80;;
72559;SDS011;62987;52.382;9.752;2022-12-07T03:57:37;14.75;;;6.45;;
72559;SDS011;62987;52.382;9.752;2022-12-07T04:00:09;15.65;;;5.63;;
72559;SDS011;62987;52.382;9.752;2022-12-07T04:02:40;14.25;;;5.80;;
72559;SDS011;62987;52.382;9.752;2022-12-07T04:05:09;16.75;;;5.90;;
72559;SDS011;62987;52.382;9.752;2022-12-07T04:07:37;14.02;;;6.43;;
72559;SDS011;62987;52.382;9.752;2022-12-07T04:10:06;15.52;;;6.55;;
72559;SDS011;62987;52.382;9.752;2022-12-07T04:12:35;14.55;;;5.70;;
72559;SDS011;62987;52.382;9.752;2022-12-07T04:15:03;11.55;;;5.55;;
72559;SDS011;62987;52.382;9.752;2022-12-07T04:17:32;15.15;;;5.38;;
72559;SDS011;62987;52.382;9.752;2022-12-07T04:20:01;12.48;;;5.07;;
72559;SDS011;62987;52.382;9.752;2022-12-07T04:22:30;14.73;;;6.35;;
72559;SDS011;62987;52.382;9.752;2022-12-07T04:24:59;15.38;;;5.50;;
72559;SDS011;62987;52.382;9.752;2022-12-07T04:27:26;13.38;;;6.00;;
72559;SDS011;62987;52.382;9.752;2022-12-07T04:29:54;18.25;;;7.38;;
72559;SDS011;62987;52.382;9.752;2022-12-07T04:32:23;17.85;;;6.63;;
72559;SDS011;62987;52.382;9.752;2022-12-07T04:34:51;17.50;;;6.38;;
72559;SDS011;62987;52.382;9.752;2022-12-07T04:37:23;16.40;;;6.78;;
72559;SDS011;62987;52.382;9.752;2022-12-07T04:39:51;15.10;;;6.10;;
72559;SDS011;62987;52.382;9.752;2022-12-07T04:42:19;14.90;;;6.70;;
72559;SDS011;62987;52.382;9.752;2022-12-07T04:44:47;15.90;;;6.25;;
72559;SDS011;62987;52.382;9.752;2022-12-07T04:47:15;20.13;;;6.93;;
72559;SDS011;62987;52.382;9.752;2022-12-07T04:49:43;13.30;;;6.45;;
72559;SDS011;62987;52.382;9.752;2022-12-07T04:52:10;17.70;;;6.85;;
72559;SDS011;62987;52.382;9.752;2022-12-07T04:54:40;13.05;;;5.90;;
72559;SDS011;62987;52.382;9.752;2022-12-07T04:57:08;17.88;;;6.80;;
72559;SDS011;62987;52.382;9.752;2022-12-07T04:59:36;19.45;;;7.40;;
72559;SDS011;62987;52.382;9.752;2022-12-07T05:02:10;20.73;;;7.35;;
72559;SDS011;62987;52.382;9.752;2022-12-07T05:04:38;14.77;;;6.35;;
72559;SDS011;62987;52.382;9.752;2022-12-07T05:07:07;20.40;;;6.78;;
72559;SDS011;62987;52.382;9.752;2022-12-07T05:09:34;17.77;;;6.25;;
72559;SDS011;62987;52.382;9.752;2022-12-07T05:12:04;17.02;;;6.72;;
72559;SDS011;62987;52.382;9.752;2022-12-07T05:14:32;18.40;;;6.75;;
72559;SDS011;62987;52.382;9.752;2022-12-07T05:17:00;17.50;;;6.82;;
72559;SDS011;62987;52.382;9.752;2022-12-07T05:19:28;18.45;;;7.63;;
72559;SDS011;62987;52.382;9.752;2022-12-07T05:21:56;18.27;;;6.57;;
72559;SDS011;62987;52.382;9.752;2022-12-07T05:24:24;17.92;;;7.07;;
72559;SDS011;62987;52.382;9.752;2022-12-07T05:26:52;17.33;;;5.80;;
72559;SDS011;62987;52.382;9.752;2022-12-07T05:29:21;14.23;;;6.13;;
72559;SDS011;62987;52.382;9.752;2022-12-07T05:31:49;14.85;;;6.38;;
72559;SDS011;62987;52.382;9.752;2022-12-07T05:34:17;15.52;;;5.38;;
72559;SDS011;62987;52.382;9.752;2022-12-07T05:36:45;14.57;;;5.05;;
72559;SDS011;62987;52.382;9.752;2022-12-07T05:39:13;16.13;;;5.00;;
72559;SDS011;62987;52.382;9.752;2022-12-07T05:41:41;16.73;;;6.45;;
72559;SDS011;62987;52.382;9.752;2022-12-07T05:44:28;16.33;;;5.40;;
72559;SDS011;62987;52.382;9.752;2022-12-07T05:46:56;13.80;;;5.28;;
72559;SDS011;62987;52.382;9.752;2022-12-07T05:49:24;17.13;;;5.57;;
72559;SDS011;62987;52.382;9.752;2022-12-07T05:51:52;14.57;;;5.20;;
72559;SDS011;62987;52.382;9.752;2022-12-07T05:54:20;11.80;;;4.40;;
72559;SDS011;62987;52.382;9.752;2022-12-07T05:56:48;17.05;;;5.00;;
72559;SDS011;62987;52.382;9.752;2022-12-07T05:59:16;13.60;;;5.28;;
72559;SDS011;62987;52.382;9.752;2022-12-07T06:01:51;15.48;;;5.70;;
72559;SDS011;62987;52.382;9.752;2022-12-07T06:04:20;12.43;;;4.45;;
72559;SDS011;62987;52.382;9.752;2022-12-07T06:06:49;16.98;;;5.05;;
72559;SDS011;62987;52.382;9.752;2022-12-07T06:09:17;12.40;;;4.90;;
72559;SDS011;62987;52.382;9.752;2022-12-07T06:11:46;11.10;;;4.22;;
72559;SDS011;62987;52.382;9.752;2022-12-07T06:14:31;16.33;;;4.88;;
72559;SDS011;62987;52.382;9.752;2022-12-07T06:17:01;11.63;;;5.18;;
72559;SDS011;62987;52.382;9.752;2022-12-07T06:19:29;13.40;;;4.63;;
72559;SDS011;62987;52.382;9.752;2022-12-07T06:21:57;11.48;;;5.53;;
72559;SDS011;62987;52.382;9.752;2022-12-07T06:24:25;13.18;;;4.35;;
72559;SDS011;62987;52.382;9.752;2022-12-07T06:26:53;14.30;;;4.68;;
72559;SDS011;62987;52.382;9.752;2022-12-07T06:29:21;9.93;;;3.53;;
72559;SDS011;62987;52.382;9.752;2022-12-07T06:31:49;9.93;;;4.45;;
72559;SDS011;62987;52.382;9.752;2022-12-07T06:34:20;8.80;;;3.78;;
72559;SDS011;62987;52.382;9.752;2022-12-07T06:36:49;14.35;;;4.85;;
72559;SDS011;62987;52.382;9.752;2022-12-07T06:39:20;11.48;;;3.85;;
72559;SDS011;62987;52.382;9.752;2022-12-07T06:41:49;9.52;;;2.80;;
72559;SDS011;62987;52.382;9.752;2022-12-07T06:44:19;7.78;;;3.13;;
72559;SDS011;62987;52.382;9.752;2022-12-07T06:46:48;9.65;;;3.85;;
72559;SDS011;62987;52.382;9.752;2022-12-07T06:49:16;10.57;;;3.67;;
72559;SDS011;62987;52.382;9.752;2022-12-07T06:51:46;9.20;;;3.17;;
72559;SDS011;62987;52.382;9.752;2022-12-07T06:54:14;7.18;;;3.33;;
72559;SDS011;62987;52.382;9.752;2022-12-07T06:56:43;9.70;;;2.95;;
72559;SDS011;62987;52.382;9.752;2022-12-07T06:59:11;13.27;;;3.50;;
72559;SDS011;62987;52.382;9.752;2022-12-07T07:01:39;9.73;;;3.47;;
72559;SDS011;62987;52.382;9.752;2022-12-07T07:04:07;11.80;;;2.95;;
72559;SDS011;62987;52.382;9.752;2022-12-07T07:06:35;8.63;;;3.30;;
72559;SDS011;62987;52.382;9.752;2022-12-07T07:09:04;6.70;;;2.42;;
72559;SDS011;62987;52.382;9.752;2022-12-07T07:11:32;11.40;;;3.13;;
72559;SDS011;62987;52.382;9.752;2022-12-07T07:14:00;7.60;;;3.10;;
72559;SDS011;62987;52.382;9.752;2022-12-07T07:16:29;10.45;;;4.32;;
72559;SDS011;62987;52.382;9.752;2022-12-07T07:18:57;8.57;;;2.75;;
72559;SDS011;62987;52.382;9.752;2022-12-07T07:21:25;7.68;;;2.53;;
72559;SDS011;62987;52.382;9.752;2022-12-07T07:23:54;8.80;;;2.97;;
72559;SDS011;62987;52.382;9.752;2022-12-07T07:26:24;8.23;;;2.55;;
72559;SDS011;62987;52.382;9.752;2022-12-07T07:28:52;7.30;;;2.63;;
72559;SDS011;62987;52.382;9.752;2022-12-07T07:31:20;10.32;;;3.22;;
72559;SDS011;62987;52.382;9.752;2022-12-07T07:33:48;8.25;;;3.40;;
72559;SDS011;62987;52.382;9.752;2022-12-07T07:36:16;7.25;;;2.28;;
72559;SDS011;62987;52.382;9.752;2022-12-07T07:38:44;7.32;;;1.90;;
72559;SDS011;62987;52.382;9.752;2022-12-07T07:41:12;8.45;;;2.35;;
72559;SDS011;62987;52.382;9.752;2022-12-07T07:43:41;10.57;;;3.75;;
72559;SDS011;62987;52.382;9.752;2022-12-07T07:46:09;6.18;;;2.40;;
72559;SDS011;62987;52.382;9.752;2022-12-07T07:48:37;9.32;;;2.42;;
72559;SDS011;62987;52.382;9.752;2022-12-07T07:51:05;7.88;;;2.50;;
72559;SDS011;62987;52.382;9.752;2022-12-07T07:53:34;5.57;;;2.30;;
72559;SDS011;62987;52.382;9.752;2022-12-07T07:56:02;7.30;;;2.22;;
72559;SDS011;62987;52.382;9.752;2022-12-07T07:58:31;8.77;;;3.17;;
72559;SDS011;62987;52.382;9.752;2022-12-07T08:01:04;5.60;;;2.33;;
72559;SDS011;62987;52.382;9.752;2022-12-07T08:03:33;5.35;;;2.03;;
72559;SDS011;62987;52.382;9.752;2022-12-07T08:06:02;4.20;;;1.58;;
72559;SDS011;62987;52.382;9.752;2022-12-07T08:08:30;7.20;;;3.15;;
72559;SDS011;62987;52.382;9.752;2022-12-07T08:10:58;9.48;;;2.05;;
72559;SDS011;62987;52.382;9.752;2022-12-07T08:13:28;7.43;;;2.35;;
72559;SDS011;62987;52.382;9.752;2022-12-07T08:15:57;7.95;;;2.45;;
72559;SDS011;62987;52.382;9.752;2022-12-07T08:18:27;4.97;;;2.08;;
72559;SDS011;62987;52.382;9.752;2022-12-07T08:20:58;5.93;;;2.22;;
72559;SDS011;62987;52.382;9.752;2022-12-07T08:23:27;5.55;;;1.52;;
72559;SDS011;62987;52.382;9.752;2022-12-07T08:26:06;3.88;;;1.30;;
72559;SDS011;62987;52.382;9.752;2022-12-07T08:28:35;7.22;;;2.10;;
72559;SDS011;62987;52.382;9.752;2022-12-07T08:31:05;6.97;;;2.17;;
72559;SDS011;62987;52.382;9.752;2022-12-07T08:33:36;7.63;;;1.98;;
72559;SDS011;62987;52.382;9.752;2022-12-07T08:36:05;5.63;;;1.75;;
72559;SDS011;62987;52.382;9.752;2022-12-07T08:38:35;6.45;;;1.23;;
72559;SDS011;62987;52.382;9.752;2022-12-07T08:41:03;7.35;;;1.83;;
72559;SDS011;62987;52.382;9.752;2022-12-07T08:43:31;4.53;;;2.03;;
72559;SDS011;62987;52.382;9.752;2022-12-07T08:46:03;6.25;;;1.83;;
72559;SDS011;62987;52.382;9.752;2022-12-07T08:48:38;5.95;;;1.38;;
72559;SDS011;62987;52.382;9.752;2022-12-07T08:51:10;5.25;;;2.13;;
72559;SDS011;62987;52.382;9.752;2022-12-07T08:53:38;2.42;;;1.08;;
72559;SDS011;62987;52.382;9.752;2022-12-07T08:56:08;4.30;;;1.20;;
72559;SDS011;62987;52.382;9.752;2022-12-07T08:58:37;9.85;;;1.75;;
72559;SDS011;62987;52.382;9.752;2022-12-07T09:01:06;4.80;;;1.80;;
72559;SDS011;62987;52.382;9.752;2022-12-07T09:03:34;6.10;;;1.70;;
72559;SDS011;62987;52.382;9.752;2022-12-07T09:06:04;9.95;;;1.70;;
72559;SDS011;62987;52.382;9.752;2022-12-07T09:08:33;6.28;;;2.20;;
72559;SDS011;62987;52.382;9.752;2022-12-07T09:11:04;7.72;;;2.58;;
72559;SDS011;62987;52.382;9.752;2022-12-07T09:13:32;5.93;;;1.55;;
72559;SDS011;62987;52.382;9.752;2022-12-07T09:16:00;4.68;;;1.63;;
72559;SDS011;62987;52.382;9.752;2022-12-07T09:18:28;5.57;;;1.67;;
72559;SDS011;62987;52.382;9.752;2022-12-07T09:20:56;6.78;;;2.20;;
72559;SDS011;62987;52.382;9.752;2022-12-07T09:23:25;5.05;;;1.65;;
72559;SDS011;62987;52.382;9.752;2022-12-07T09:25:54;6.50;;;1.63;;
72559;SDS011;62987;52.382;9.752;2022-12-07T09:28:21;4.68;;;1.20;;
72559;SDS011;62987;52.382;9.752;2022-12-07T09:30:49;6.32;;;1.40;;
72559;SDS011;62987;52.382;9.752;2022-12-07T09:33:37;5.85;;;1.52;;
72559;SDS011;62987;52.382;9.752;2022-12-07T09:36:06;5.97;;;1.25;;
72559;SDS011;62987;52.382;9.752;2022-12-07T09:38:37;5.07;;;2.13;;
72559;SDS011;62987;52.382;9.752;2022-12-07T09:41:05;2.35;;;1.10;;
72559;SDS011;62987;52.382;9.752;2022-12-07T09:43:35;3.53;;;1.20;;
72559;SDS011;62987;52.382;9.752;2022-12-07T09:46:04;4.38;;;1.73;;
72559;SDS011;62987;52.382;9.752;2022-12-07T09:48:33;9.95;;;1.75;;
72559;SDS011;62987;52.382;9.752;2022-12-07T09:51:10;5.30;;;1.27;;
72559;SDS011;62987;52.382;9.752;2022-12-07T09:53:50;4.97;;;1.27;;
72559;SDS011;62987;52.382;9.752;2022-12-07T09:56:20;3.60;;;1.42;;
72559;SDS011;62987;52.382;9.752;2022-12-07T09:58:49;4.22;;;1.10;;
72559;SDS011;62987;52.382;9.752;2022-12-07T10:01:20;7.65;;;1.50;;
72559;SDS011;62987;52.382;9.752;2022-12-07T10:03:49;6.78;;;1.83;;
72559;SDS011;62987;52.382;9.752;2022-12-07T10:06:18;4.95;;;1.23;;
72559;SDS011;62987;52.382;9.752;2022-12-07T10:08:47;3.88;;;1.20;;
72559;SDS011;62987;52.382;9.752;2022-12-07T10:11:16;3.78;;;1.38;;
72559;SDS011;62987;52.382;9.752;2022-12-07T10:13:45;2.80;;;0.93;;
72559;SDS011;62987;52.382;9.752;2022-12-07T10:19:18;4.50;;;1.10;;
72559;SDS011;62987;52.382;9.752;2022-12-07T10:24:37;2.40;;;0.73;;
72559;SDS011;62987;52.382;9.752;2022-12-07T10:27:18;4.38;;;0.90;;
72559;SDS011;62987;52.382;9.752;2022-12-07T10:29:48;1.95;;;0.80;;
72559;SDS011;62987;52.382;9.752;2022-12-07T10:32:28;6.63;;;1.30;;
72559;SDS011;62987;52.382;9.752;2022-12-07T10:35:19;6.47;;;1.58;;
72559;SDS011;62987;52.382;9.752;2022-12-07T10:37:49;2.35;;;0.65;;
72559;SDS011;62987;52.382;9.752;2022-12-07T10:40:26;3.88;;;0.85;;
72559;SDS011;62987;52.382;9.752;2022-12-07T10:43:05;10.55;;;1.23;;
72559;SDS011;62987;52.382;9.752;2022-12-07T10:46:04;6.85;;;1.92;;
72559;SDS011;62987;52.382;9.752;2022-12-07T10:48:53;2.55;;;0.95;;
72559;SDS011;62987;52.382;9.752;2022-12-07T10:51:32;4.65;;;1.40;;
72559;SDS011;62987;52.382;9.752;2022-12-07T10:54:09;5.20;;;0.98;;
72559;SDS011;62987;52.382;9.752;2022-12-07T10:56:51;3.65;;;1.10;;
72559;SDS011;62987;52.382;9.752;2022-12-07T10:59:34;4.15;;;1.20;;
72559;SDS011;62987;52.382;9.752;2022-12-07T11:02:18;10.32;;;1.55;;
72559;SDS011;62987;52.382;9.752;2022-12-07T11:05:03;11.63;;;3.47;;
72559;SDS011;62987;52.382;9.752;2022-12-07T11:07:43;4.57;;;1.50;;
72559;SDS011;62987;52.382;9.752;2022-12-07T11:10:24;5.20;;;1.38;;
72559;SDS011;62987;52.382;9.752;2022-12-07T11:13:02;3.45;;;1.13;;
72559;SDS011;62987;52.382;9.752;2022-12-07T11:15:46;3.00;;;1.00;;
72559;SDS011;62987;52.382;9.752;2022-12-07T11:18:24;6.53;;;1.23;;
72559;SDS011;62987;52.382;9.752;2022-12-07T11:20:57;5.28;;;1.20;;
72559;SDS011;62987;52.382;9.752;2022-12-07T11:23:39;5.85;;;1.25;;
72559;SDS011;62987;52.382;9.752;2022-12-07T11:26:15;5.65;;;1.13;;
72559;SDS011;62987;52.382;9.752;2022-12-07T11:29:01;1.27;;;0.63;;
72559;SDS011;62987;52.382;9.752;2022-12-07T11:31:49;3.13;;;0.77;;
72559;SDS011;62987;52.382;9.752;2022-12-07T11:34:24;7.47;;;1.80;;
72559;SDS011;62987;52.382;9.752;2022-12-07T11:37:00;3.70;;;1.13;;
72559;SDS011;62987;52.382;9.752;2022-12-07T11:39:33;2.20;;;0.90;;
72559;SDS011;62987;52.382;9.752;2022-12-07T11:42:06;3.58;;;1.10;;
72559;SDS011;62987;52.382;9.752;2022-12-07T11:44:43;3.60;;;1.10;;
72559;SDS011;62987;52.382;9.752;2022-12-07T11:47:22;4.70;;;1.50;;
72559;SDS011;62987;52.382;9.752;2022-12-07T11:49:56;6.15;;;1.77;;
72559;SDS011;62987;52.382;9.752;2022-12-07T11:52:32;3.58;;;1.40;;
72559;SDS011;62987;52.382;9.752;2022-12-07T11:55:14;4.40;;;1.50;;
72559;SDS011;62987;52.382;9.752;2022-12-07T11:57:50;4.47;;;1.80;;
72559;SDS011;62987;52.382;9.752;2022-12-07T12:00:24;4.03;;;1.42;;
72559;SDS011;62987;52.382;9.752;2022-12-07T12:02:53;4.47;;;1.73;;
72559;SDS011;62987;52.382;9.752;2022-12-07T12:05:27;6.10;;;2.10;;
72559;SDS011;62987;52.382;9.752;2022-12-07T12:07:58;4.63;;;2.08;;
72559;SDS011;62987;52.382;9.752;2022-12-07T12:19:58;5.47;;;1.65;;
72559;SDS011;62987;52.382;9.752;2022-12-07T12:22:32;3.30;;;1.48;;
72559;SDS011;62987;52.382;9.752;2022-12-07T12:25:04;6.45;;;1.60;;
72559;SDS011;62987;52.382;9.752;2022-12-07T12:27:34;6.32;;;1.90;;
72559;SDS011;62987;52.382;9.752;2022-12-07T12:30:05;4.60;;;1.70;;
72559;SDS011;62987;52.382;9.752;2022-12-07T12:35:27;2.78;;;1.20;;
72559;SDS011;62987;52.382;9.752;2022-12-07T12:40:54;9.18;;;2.38;;
72559;SDS011;62987;52.382;9.752;2022-12-07T12:43:43;4.88;;;1.50;;
72559;SDS011;62987;52.382;9.752;2022-12-07T12:49:14;6.13;;;2.92;;
72559;SDS011;62987;52.382;9.752;2022-12-07T12:55:19;7.25;;;1.58;;
72559;SDS011;62987;52.382;9.752;2022-12-07T13:04:18;3.15;;;2.05;;
72559;SDS011;62987;52.382;9.752;2022-12-07T13:06:51;5.00;;;1.70;;
72559;SDS011;62987;52.382;9.752;2022-12-07T13:09:21;5.80;;;1.63;;
72559;SDS011;62987;52.382;9.752;2022-12-07T13:11:58;7.57;;;2.28;;
72559;SDS011;62987;52.382;9.752;2022-12-07T13:23:23;7.80;;;2.08;;
72559;SDS011;62987;52.382;9.752;2022-12-07T13:29:04;6.65;;;1.60;;
72559;SDS011;62987;52.382;9.752;2022-12-07T13:31:35;22.23;;;2.33;;
72559;SDS011;62987;52.382;9.752;2022-12-07T13:36:56;6.63;;;1.48;;
72559;SDS011;62987;52.382;9.752;2022-12-07T13:39:26;5.80;;;1.55;;
72559;SDS011;62987;52.382;9.752;2022-12-07T13:41:55;5.60;;;1.30;;
72559;SDS011;62987;52.382;9.752;2022-12-07T13:44:27;6.63;;;1.67;;
72559;SDS011;62987;52.382;9.752;2022-12-07T13:46:58;6.82;;;1.63;;
72559;SDS011;62987;52.382;9.752;2022-12-07T13:49:33;5.28;;;2.35;;
72559;SDS011;62987;52.382;9.752;2022-12-07T13:52:16;6.78;;;1.60;;
72559;SDS011;62987;52.382;9.752;2022-12-07T13:54:45;4.50;;;2.00;;
72559;SDS011;62987;52.382;9.752;2022-12-07T13:57:16;5.80;;;1.70;;
72559;SDS011;62987;52.382;9.752;2022-12-07T13:59:45;3.97;;;1.77;;
72559;SDS011;62987;52.382;9.752;2022-12-07T14:02:18;3.60;;;1.30;;
72559;SDS011;62987;52.382;9.752;2022-12-07T14:04:48;2.40;;;0.82;;
72559;SDS011;62987;52.382;9.752;2022-12-07T14:07:22;5.50;;;1.00;;
72559;SDS011;62987;52.382;9.752;2022-12-07T14:09:55;5.55;;;1.58;;
72559;SDS011;62987;52.382;9.752;2022-12-07T14:12:25;4.55;;;0.98;;
72559;SDS011;62987;52.382;9.752;2022-12-07T14:14:55;3.30;;;0.90;;
72559;SDS011;62987;52.382;9.752;2022-12-07T14:17:25;7.25;;;1.98;;
72559;SDS011;62987;52.382;9.752;2022-12-07T14:19:54;3.58;;;1.02;;
72559;SDS011;62987;52.382;9.752;2022-12-07T14:22:25;4.68;;;1.33;;
72559;SDS011;62987;52.382;9.752;2022-12-07T14:27:50;5.10;;;1.77;;
72559;SDS011;62987;52.382;9.752;2022-12-07T14:30:24;7.05;;;1.20;;
72559;SDS011;62987;52.382;9.752;2022-12-07T14:32:54;16.08;;;5.88;;
72559;SDS011;62987;52.382;9.752;2022-12-07T14:35:26;28.33;;;11.43;;
72559;SDS011;62987;52.382;9.752;2022-12-07T14:37:55;17.70;;;4.93;;
72559;SDS011;62987;52.382;9.752;2022-12-07T14:40:24;42.97;;;13.52;;
72559;SDS011;62987;52.382;9.752;2022-12-07T14:42:54;36.65;;;13.13;;
72559;SDS011;62987;52.382;9.752;2022-12-07T14:45:26;22.60;;;7.25;;
72559;SDS011;62987;52.382;9.752;2022-12-07T14:47:54;13.73;;;4.13;;
72559;SDS011;62987;52.382;9.752;2022-12-07T14:50:42;34.05;;;11.30;;
72559;SDS011;62987;52.382;9.752;2022-12-07T14:53:35;10.70;;;3.00;;
72559;SDS011;62987;52.382;9.752;2022-12-07T14:56:06;5.68;;;1.70;;
72559;SDS011;62987;52.382;9.752;2022-12-07T14:58:34;5.28;;;1.35;;
72559;SDS011;62987;52.382;9.752;2022-12-07T15:01:04;5.63;;;1.92;;
72559;SDS011;62987;52.382;9.752;2022-12-07T15:03:32;8.65;;;2.42;;
72559;SDS011;62987;52.382;9.752;2022-12-07T15:06:01;6.60;;;1.52;;
72559;SDS011;62987;52.382;9.752;2022-12-07T15:08:29;5.43;;;1.45;;
72559;SDS011;62987;52.382;9.752;2022-12-07T15:10:57;4.13;;;1.55;;
72559;SDS011;62987;52.382;9.752;2022-12-07T15:13:26;6.00;;;1.88;;
72559;SDS011;62987;52.382;9.752;2022-12-07T15:16:13;8.55;;;1.90;;
72559;SDS011;62987;52.382;9.752;2022-12-07T15:18:46;5.15;;;1.55;;
72559;SDS011;62987;52.382;9.752;2022-12-07T15:21:34;6.70;;;2.03;;
72559;SDS011;62987;52.382;9.752;2022-12-07T15:24:02;6.07;;;2.13;;
72559;SDS011;62987;52.382;9.752;2022-12-07T15:26:31;4.15;;;1.88;;
72559;SDS011;62987;52.382;9.752;2022-12-07T15:28:59;5.28;;;1.85;;
72559;SDS011;62987;52.382;9.752;2022-12-07T15:31:28;6.15;;;1.40;;
72559;SDS011;62987;52.382;9.752;2022-12-07T15:34:17;4.38;;;1.45;;
72559;SDS011;62987;52.382;9.752;2022-12-07T15:36:45;5.57;;;1.40;;
72559;SDS011;62987;52.382;9.752;2022-12-07T15:39:13;5.90;;;1.92;;
72559;SDS011;62987;52.382;9.752;2022-12-07T15:41:41;3.50;;;1.48;;
72559;SDS011;62987;52.382;9.752;2022-12-07T15:44:10;3.72;;;1.63;;
72559;SDS011;62987;52.382;9.752;2022-12-07T15:46:58;4.78;;;1.88;;
72559;SDS011;62987;52.382;9.752;2022-12-07T15:49:26;4.75;;;1.90;;
72559;SDS011;62987;52.382;9.752;2022-12-07T15:51:54;4.22;;;1.52;;
72559;SDS011;62987;52.382;9.752;2022-12-07T15:54:23;6.50;;;1.63;;
72559;SDS011;62987;52.382;9.752;2022-12-07T15:56:52;6.80;;;2.10;;
72559;SDS011;62987;52.382;9.752;2022-12-07T15:59:21;4.25;;;1.88;;